createdAt,value
2018-03-08T00:00:11.434Z,960.81
2018-03-08T00:01:11.494Z,960.86
2018-03-08T00:02:11.526Z,960.85
2018-03-08T00:03:11.559Z,960.87
2018-03-08T00:04:11.604Z,960.81
2018-03-08T00:05:11.648Z,960.84
2018-03-08T00:06:11.781Z,960.85
2018-03-08T00:07:11.731Z,960.80
2018-03-08T00:08:11.795Z,960.86
2018-03-08T00:09:11.818Z,960.82
2018-03-08T00:10:11.860Z,960.83
2018-03-08T00:11:11.904Z,960.84
2018-03-08T00:12:11.962Z,960.86
2018-03-08T00:13:12.041Z,960.89
2018-03-08T00:14:12.032Z,960.87
2018-03-08T00:15:12.072Z,960.90
2018-03-08T00:16:12.118Z,960.89
2018-03-08T00:17:12.171Z,960.88
2018-03-08T00:18:12.219Z,960.90
2018-03-08T00:19:12.244Z,960.91
2018-03-08T00:20:12.289Z,960.88
2018-03-08T00:21:12.330Z,960.87
2018-03-08T00:22:12.370Z,960.87
2018-03-08T00:23:12.431Z,960.83
2018-03-08T00:24:12.460Z,960.84
2018-03-08T00:25:12.521Z,960.82
2018-03-08T00:26:12.541Z,960.86
2018-03-08T00:27:12.582Z,960.88
2018-03-08T00:28:12.626Z,960.85
2018-03-08T00:29:12.691Z,960.91
2018-03-08T00:30:12.712Z,960.88
2018-03-08T00:31:12.754Z,960.87
2018-03-08T00:32:12.799Z,960.91
2018-03-08T00:33:12.842Z,960.90
2018-03-08T00:34:12.903Z,960.92
2018-03-08T00:35:12.926Z,960.93
2018-03-08T00:36:12.968Z,960.95
2018-03-08T00:37:13.010Z,960.99
2018-03-08T00:38:13.052Z,961.03
2018-03-08T00:39:13.112Z,961.03
2018-03-08T00:40:13.143Z,960.95
2018-03-08T00:41:13.182Z,960.92
2018-03-08T00:42:13.222Z,960.93
2018-03-08T00:43:13.269Z,960.90
2018-03-08T00:44:13.330Z,960.93
2018-03-08T00:45:13.352Z,960.90
2018-03-08T00:46:13.406Z,960.96
2018-03-08T00:47:13.436Z,960.88
2018-03-08T00:48:13.515Z,960.90
2018-03-08T00:49:13.525Z,960.88
2018-03-08T00:50:13.571Z,960.91
2018-03-08T00:51:13.631Z,960.90
2018-03-08T00:52:13.649Z,960.91
2018-03-08T00:53:13.697Z,960.91
2018-03-08T00:54:13.735Z,960.88
2018-03-08T00:55:13.784Z,960.90
2018-03-08T00:56:13.841Z,960.90
2018-03-08T00:57:13.863Z,960.89
2018-03-08T00:58:13.902Z,960.89
2018-03-08T00:59:13.949Z,960.90
2018-03-08T01:00:13.991Z,960.93
2018-03-08T01:01:14.053Z,960.92
2018-03-08T01:02:14.075Z,960.91
2018-03-08T01:03:14.124Z,960.95
2018-03-08T01:04:14.163Z,960.97
2018-03-08T01:05:14.223Z,960.90
2018-03-08T01:06:14.248Z,960.98
2018-03-08T01:07:14.308Z,960.99
2018-03-08T01:08:14.334Z,960.95
2018-03-08T01:09:14.379Z,960.96
2018-03-08T01:10:14.417Z,960.98
2018-03-08T01:11:14.477Z,960.93
2018-03-08T01:12:14.520Z,960.99
2018-03-08T01:13:14.552Z,960.94
2018-03-08T01:14:14.590Z,960.96
2018-03-08T01:15:14.630Z,961.01
2018-03-08T01:16:14.691Z,961.04
2018-03-08T01:17:14.734Z,961.02
2018-03-08T01:18:14.761Z,961.00
2018-03-08T01:19:14.800Z,961.08
2018-03-08T01:20:14.845Z,961.10
2018-03-08T01:21:14.886Z,961.10
2018-03-08T01:22:14.948Z,961.14
2018-03-08T01:23:14.973Z,961.16
2018-03-08T01:24:15.020Z,961.16
2018-03-08T01:25:15.057Z,961.14
2018-03-08T01:26:15.103Z,961.19
2018-03-08T01:27:15.158Z,961.22
2018-03-08T01:28:15.186Z,961.15
2018-03-08T01:29:15.229Z,961.19
2018-03-08T01:30:15.270Z,961.21
2018-03-08T01:31:15.317Z,961.18
2018-03-08T01:32:15.386Z,961.18
2018-03-08T01:33:15.398Z,961.17
2018-03-08T01:34:15.440Z,961.21
2018-03-08T01:35:15.484Z,961.22
2018-03-08T01:36:15.524Z,961.18
2018-03-08T01:37:15.590Z,961.24
2018-03-08T01:38:15.612Z,961.21
2018-03-08T01:39:15.657Z,961.26
2018-03-08T01:40:15.714Z,961.28
2018-03-08T01:41:15.742Z,961.21
2018-03-08T01:42:15.782Z,961.29
2018-03-08T01:43:15.828Z,961.28
2018-03-08T01:44:15.871Z,961.24
2018-03-08T01:45:15.928Z,961.23
2018-03-08T01:46:15.960Z,961.25
2018-03-08T01:47:15.997Z,961.24
2018-03-08T01:48:16.040Z,961.20
2018-03-08T01:49:16.084Z,961.18
2018-03-08T01:50:16.141Z,961.13
2018-03-08T01:51:16.166Z,961.13
2018-03-08T01:52:16.215Z,961.14
2018-03-08T01:53:16.253Z,961.18
2018-03-08T01:54:16.302Z,961.21
2018-03-08T01:55:16.354Z,961.14
2018-03-08T01:56:16.390Z,961.10
2018-03-08T01:57:16.424Z,961.07
2018-03-08T01:58:16.465Z,961.08
2018-03-08T01:59:16.507Z,961.07
2018-03-08T02:00:16.570Z,961.08
2018-03-08T02:01:16.596Z,961.13
2018-03-08T02:02:16.636Z,961.09
2018-03-08T02:03:16.681Z,961.10
2018-03-08T02:04:16.723Z,961.10
2018-03-08T02:05:16.784Z,961.11
2018-03-08T02:06:16.805Z,961.16
2018-03-08T02:07:16.848Z,961.16
2018-03-08T02:08:16.893Z,961.19
2018-03-08T02:09:16.942Z,961.17
2018-03-08T02:10:17.007Z,961.21
2018-03-08T02:11:17.022Z,961.24
2018-03-08T02:12:17.065Z,961.25
2018-03-08T02:13:17.104Z,961.29
2018-03-08T02:14:17.151Z,961.27
2018-03-08T02:15:17.220Z,961.33
2018-03-08T02:16:17.232Z,961.31
2018-03-08T02:17:17.283Z,961.38
2018-03-08T02:18:17.317Z,961.35
2018-03-08T02:19:17.363Z,961.42
2018-03-08T02:20:17.421Z,961.45
2018-03-08T02:21:17.466Z,961.47
2018-03-08T02:22:17.491Z,961.50
2018-03-08T02:23:17.532Z,961.51
2018-03-08T02:24:17.573Z,961.52
2018-03-08T02:25:17.616Z,961.53
2018-03-08T02:26:17.680Z,961.52
2018-03-08T02:27:17.702Z,961.52
2018-03-08T02:28:17.744Z,961.55
2018-03-08T02:29:17.785Z,961.53
2018-03-08T02:30:17.830Z,961.54
2018-03-08T02:31:17.890Z,961.53
2018-03-08T02:32:17.919Z,961.59
2018-03-08T02:33:18.014Z,961.63
2018-03-08T02:34:18.000Z,961.64
2018-03-08T02:35:18.044Z,961.64
2018-03-08T02:36:18.099Z,961.60
2018-03-08T02:37:18.150Z,961.57
2018-03-08T02:38:18.168Z,961.61
2018-03-08T02:39:18.217Z,961.60
2018-03-08T02:40:18.255Z,961.59
2018-03-08T02:41:18.306Z,961.54
2018-03-08T02:42:18.358Z,961.64
2018-03-08T02:43:18.384Z,961.60
2018-03-08T02:44:18.425Z,961.57
2018-03-08T02:45:18.468Z,961.64
2018-03-08T02:46:18.515Z,961.65
2018-03-08T02:47:18.569Z,961.65
2018-03-08T02:48:18.594Z,961.69
2018-03-08T02:49:18.643Z,961.67
2018-03-08T02:50:18.680Z,961.65
2018-03-08T02:51:18.737Z,961.68
2018-03-08T02:52:18.784Z,961.69
2018-03-08T02:53:18.809Z,961.65
2018-03-08T02:54:18.866Z,961.62
2018-03-08T02:55:18.899Z,961.65
2018-03-08T02:56:18.938Z,961.69
2018-03-08T02:57:19.004Z,961.64
2018-03-08T02:58:19.036Z,961.70
2018-03-08T02:59:19.066Z,961.67
2018-03-08T03:00:19.107Z,961.72
2018-03-08T03:01:19.149Z,961.69
2018-03-08T03:02:19.212Z,961.66
2018-03-08T03:03:19.255Z,961.67
2018-03-08T03:04:19.287Z,961.68
2018-03-08T03:05:19.323Z,961.68
2018-03-08T03:06:19.361Z,961.68
2018-03-08T03:07:19.424Z,961.67
2018-03-08T03:08:19.448Z,961.68
2018-03-08T03:09:19.491Z,961.66
2018-03-08T03:10:19.533Z,961.67
2018-03-08T03:11:19.575Z,961.72
2018-03-08T03:12:19.633Z,961.64
2018-03-08T03:13:19.679Z,961.66
2018-03-08T03:14:19.709Z,961.66
2018-03-08T03:15:19.750Z,961.68
2018-03-08T03:16:19.792Z,961.66
2018-03-08T03:17:19.839Z,961.71
2018-03-08T03:18:19.890Z,961.65
2018-03-08T03:19:19.917Z,961.67
2018-03-08T03:20:19.960Z,961.72
2018-03-08T03:21:20.004Z,961.69
2018-03-08T03:22:20.046Z,961.74
2018-03-08T03:23:20.103Z,961.74
2018-03-08T03:24:20.150Z,961.73
2018-03-08T03:25:20.173Z,961.75
2018-03-08T03:26:20.216Z,961.77
2018-03-08T03:27:20.257Z,961.78
2018-03-08T03:28:20.303Z,961.80
2018-03-08T03:29:20.370Z,961.79
2018-03-08T03:30:20.391Z,961.82
2018-03-08T03:31:20.433Z,961.85
2018-03-08T03:32:20.474Z,961.81
2018-03-08T03:33:20.515Z,961.84
2018-03-08T03:34:20.577Z,961.79
2018-03-08T03:35:20.601Z,961.79
2018-03-08T03:36:20.645Z,961.82
2018-03-08T03:37:20.693Z,961.79
2018-03-08T03:38:20.736Z,961.81
2018-03-08T03:39:20.790Z,961.80
2018-03-08T03:40:20.853Z,961.82
2018-03-08T03:41:20.861Z,961.84
2018-03-08T03:42:20.900Z,961.85
2018-03-08T03:43:20.945Z,961.82
2018-03-08T03:44:20.985Z,961.84
2018-03-08T03:45:21.068Z,961.84
2018-03-08T03:46:21.072Z,961.83
2018-03-08T03:47:21.113Z,961.88
2018-03-08T03:48:21.163Z,961.86
2018-03-08T03:49:21.228Z,961.87
2018-03-08T03:50:21.260Z,961.90
2018-03-08T03:51:21.284Z,961.89
2018-03-08T03:52:21.327Z,961.87
2018-03-08T03:53:21.371Z,961.87
2018-03-08T03:54:21.414Z,961.90
2018-03-08T03:55:21.471Z,961.93
2018-03-08T03:56:21.518Z,961.91
2018-03-08T03:57:21.542Z,961.89
2018-03-08T03:58:21.582Z,961.92
2018-03-08T03:59:21.626Z,961.92
2018-03-08T04:00:21.669Z,961.93
2018-03-08T04:01:21.732Z,961.90
2018-03-08T04:02:21.753Z,961.95
2018-03-08T04:03:21.803Z,961.91
2018-03-08T04:04:21.841Z,961.94
2018-03-08T04:05:21.882Z,961.93
2018-03-08T04:06:21.941Z,961.91
2018-03-08T04:07:21.969Z,961.90
2018-03-08T04:08:22.014Z,961.94
2018-03-08T04:09:22.053Z,961.88
2018-03-08T04:10:22.098Z,961.91
2018-03-08T04:11:22.155Z,961.91
2018-03-08T04:12:22.181Z,961.92
2018-03-08T04:13:22.226Z,961.91
2018-03-08T04:14:22.266Z,961.90
2018-03-08T04:15:22.310Z,961.91
2018-03-08T04:16:22.369Z,961.95
2018-03-08T04:17:22.411Z,961.94
2018-03-08T04:18:22.436Z,961.96
2018-03-08T04:19:22.488Z,961.98
2018-03-08T04:20:22.525Z,961.98
2018-03-08T04:21:22.579Z,962.02
2018-03-08T04:23:58.692Z,962.06
2018-03-08T04:24:58.720Z,962.04
2018-03-08T04:25:58.755Z,962.09
2018-03-08T04:26:58.803Z,962.06
2018-03-08T04:27:58.866Z,962.10
2018-03-08T04:28:58.891Z,962.13
2018-03-08T04:29:58.931Z,962.09
2018-03-08T04:30:58.974Z,962.10
2018-03-08T04:31:59.017Z,962.13
2018-03-08T04:32:59.090Z,962.12
2018-03-08T04:33:59.104Z,962.16
2018-03-08T04:34:59.145Z,962.14
2018-03-08T04:35:59.189Z,962.16
2018-03-08T04:36:59.235Z,962.13
2018-03-08T04:37:59.302Z,962.18
2018-03-08T04:38:59.316Z,962.20
2018-03-08T04:39:59.358Z,962.17
2018-03-08T04:40:59.401Z,962.14
2018-03-08T04:41:59.445Z,962.16
2018-03-08T04:42:59.506Z,962.21
2018-03-08T04:43:59.545Z,962.14
2018-03-08T04:44:59.571Z,962.19
2018-03-08T04:45:59.621Z,962.19
2018-03-08T04:46:59.672Z,962.24
2018-03-08T04:47:59.701Z,962.25
2018-03-08T04:48:59.781Z,962.27
2018-03-08T04:49:59.789Z,962.22
2018-03-08T04:50:59.830Z,962.20
2018-03-08T04:51:59.872Z,962.20
2018-03-08T04:52:59.915Z,962.22
2018-03-08T04:53:59.975Z,962.16
2018-03-08T04:55:00.018Z,962.25
2018-03-08T04:56:00.066Z,962.23
2018-03-08T04:57:00.090Z,962.24
2018-03-08T04:58:00.127Z,962.26
2018-03-08T04:59:00.171Z,962.27
2018-03-08T05:00:00.246Z,962.24
2018-03-08T05:01:00.274Z,962.30
2018-03-08T05:02:00.302Z,962.30
2018-03-08T05:03:00.342Z,962.29
2018-03-08T05:04:00.381Z,962.28
2018-03-08T05:05:00.877Z,962.32
2018-03-08T05:06:00.465Z,962.27
2018-03-08T05:07:00.511Z,962.29
2018-03-08T05:08:00.555Z,962.30
2018-03-08T05:09:00.595Z,962.30
2018-03-08T05:10:00.642Z,962.33
2018-03-08T05:11:00.702Z,962.35
2018-03-08T05:12:00.719Z,962.34
2018-03-08T05:13:00.763Z,962.33
2018-03-08T05:14:00.808Z,962.34
2018-03-08T05:15:00.854Z,962.36
2018-03-08T05:16:00.914Z,962.28
2018-03-08T05:17:00.950Z,962.34
2018-03-08T05:18:00.982Z,962.34
2018-03-08T05:19:01.026Z,962.38
2018-03-08T05:20:01.071Z,962.37
2018-03-08T05:21:01.120Z,962.40
2018-03-08T05:22:01.149Z,962.38
2018-03-08T05:23:01.193Z,962.43
2018-03-08T05:24:01.236Z,962.43
2018-03-08T05:25:01.279Z,962.41
2018-03-08T05:26:01.335Z,962.42
2018-03-08T05:27:01.361Z,962.40
2018-03-08T05:28:01.406Z,962.39
2018-03-08T05:29:01.446Z,962.43
2018-03-08T05:30:01.491Z,962.41
2018-03-08T05:31:01.875Z,962.38
2018-03-08T05:32:01.574Z,962.43
2018-03-08T05:33:01.615Z,962.43
2018-03-08T05:34:01.661Z,962.44
2018-03-08T05:35:01.708Z,962.41
2018-03-08T05:36:01.760Z,962.43
2018-03-08T05:37:01.791Z,962.43
2018-03-08T05:38:01.829Z,962.45
2018-03-08T05:39:01.890Z,962.48
2018-03-08T05:40:01.967Z,962.48
2018-03-08T05:41:01.958Z,962.45
2018-03-08T05:42:02.000Z,962.52
2018-03-08T05:43:02.042Z,962.50
2018-03-08T05:44:02.107Z,962.42
2018-03-08T05:45:02.128Z,962.39
2018-03-08T05:46:02.174Z,962.39
2018-03-08T05:47:02.221Z,962.40
2018-03-08T05:48:02.277Z,962.44
2018-03-08T05:49:02.300Z,962.41
2018-03-08T05:50:02.343Z,962.36
2018-03-08T05:51:02.386Z,962.33
2018-03-08T05:52:02.426Z,962.33
2018-03-08T05:53:02.490Z,962.35
2018-03-08T05:54:02.511Z,962.34
2018-03-08T05:55:02.554Z,962.33
2018-03-08T05:56:02.599Z,962.38
2018-03-08T05:57:02.638Z,962.41
2018-03-08T05:58:02.700Z,962.39
2018-03-08T05:59:02.725Z,962.45
2018-03-08T06:00:02.767Z,962.40
2018-03-08T06:01:02.809Z,962.43
2018-03-08T06:02:02.850Z,962.43
2018-03-08T06:03:02.924Z,962.41
2018-03-08T06:04:02.940Z,962.38
2018-03-08T06:05:02.985Z,962.42
2018-03-08T06:06:03.020Z,962.45
2018-03-08T06:07:03.067Z,962.49
2018-03-08T06:08:03.122Z,962.47
2018-03-08T06:09:03.167Z,962.51
2018-03-08T06:10:03.192Z,962.51
2018-03-08T06:11:03.234Z,962.47
2018-03-08T06:12:03.277Z,962.50
2018-03-08T06:13:03.320Z,962.47
2018-03-08T06:14:03.378Z,962.46
2018-03-08T06:15:03.407Z,962.47
2018-03-08T06:16:03.458Z,962.48
2018-03-08T06:17:03.493Z,962.51
2018-03-08T06:18:03.533Z,962.50
2018-03-08T06:19:03.597Z,962.47
2018-03-08T06:20:03.618Z,962.51
2018-03-08T06:21:03.659Z,962.52
2018-03-08T06:22:03.704Z,962.49
2018-03-08T06:23:03.758Z,962.52
2018-03-08T06:24:03.791Z,962.50
2018-03-08T06:25:03.849Z,962.54
2018-03-08T06:26:03.873Z,962.53
2018-03-08T06:27:03.917Z,962.58
2018-03-08T06:28:03.961Z,962.59
2018-03-08T06:29:04.001Z,962.58
2018-03-08T06:30:04.072Z,962.61
2018-03-08T06:31:04.092Z,962.58
2018-03-08T06:32:04.144Z,962.57
2018-03-08T06:33:04.177Z,962.55
2018-03-08T06:34:04.215Z,962.54
2018-03-08T06:35:04.274Z,962.54
2018-03-08T06:36:04.301Z,962.59
2018-03-08T06:37:04.344Z,962.51
2018-03-08T06:38:04.387Z,962.52
2018-03-08T06:39:04.448Z,962.51
2018-03-08T06:40:04.495Z,962.56
2018-03-08T06:41:04.514Z,962.62
2018-03-08T06:42:04.557Z,962.62
2018-03-08T06:43:04.604Z,962.63
2018-03-08T06:44:04.644Z,962.60
2018-03-08T06:45:04.704Z,962.59
2018-03-08T06:46:04.727Z,962.54
2018-03-08T06:47:04.772Z,962.54
2018-03-08T06:48:04.815Z,962.55
2018-03-08T06:49:04.856Z,962.51
2018-03-08T06:50:04.920Z,962.53
2018-03-08T06:51:04.942Z,962.53
2018-03-08T06:52:05.009Z,962.55
2018-03-08T06:53:05.028Z,962.59
2018-03-08T06:54:05.071Z,962.59
2018-03-08T06:55:05.132Z,962.65
2018-03-08T06:56:05.160Z,962.64
2018-03-08T06:57:05.201Z,962.74
2018-03-08T06:58:05.259Z,962.75
2018-03-08T06:59:05.286Z,962.76
2018-03-08T07:00:05.328Z,962.73
2018-03-08T07:01:05.372Z,962.77
2018-03-08T07:02:05.418Z,962.76
2018-03-08T07:03:05.475Z,962.77
2018-03-08T07:04:05.500Z,962.77
2018-03-08T07:05:05.542Z,962.81
2018-03-08T07:06:05.603Z,962.76
2018-03-08T07:07:05.632Z,962.80
2018-03-08T07:08:05.673Z,962.80
2018-03-08T07:09:05.714Z,962.76
2018-03-08T07:10:05.764Z,962.78
2018-03-08T07:11:05.818Z,962.76
2018-03-08T07:12:05.853Z,962.77
2018-03-08T07:13:05.888Z,962.76
2018-03-08T07:14:05.932Z,962.72
2018-03-08T07:15:05.973Z,962.68
2018-03-08T07:16:06.056Z,962.69
2018-03-08T07:17:06.057Z,962.68
2018-03-08T07:18:06.105Z,962.69
2018-03-08T07:19:06.145Z,962.68
2018-03-08T07:20:06.190Z,962.66
2018-03-08T07:21:06.252Z,962.65
2018-03-08T07:22:06.276Z,962.67
2018-03-08T07:23:06.318Z,962.68
2018-03-08T07:24:06.362Z,962.68
2018-03-08T07:25:06.407Z,962.73
2018-03-08T07:26:06.468Z,962.72
2018-03-08T07:27:06.496Z,962.69
2018-03-08T07:28:06.535Z,962.74
2018-03-08T07:29:06.579Z,962.71
2018-03-08T07:30:06.622Z,962.78
2018-03-08T07:31:06.680Z,962.81
2018-03-08T07:32:06.702Z,962.82
2018-03-08T07:33:06.753Z,962.78
2018-03-08T07:34:06.795Z,962.78
2018-03-08T07:35:06.841Z,962.76
2018-03-08T07:36:06.899Z,962.76
2018-03-08T07:37:06.942Z,962.76
2018-03-08T07:38:06.967Z,962.79
2018-03-08T07:39:07.011Z,962.75
2018-03-08T07:40:07.057Z,962.77
2018-03-08T07:41:07.112Z,962.76
2018-03-08T07:42:07.144Z,962.74
2018-03-08T07:43:07.205Z,962.74
2018-03-08T07:44:07.225Z,962.71
2018-03-08T07:45:07.269Z,962.70
2018-03-08T07:46:07.312Z,962.69
2018-03-08T07:47:07.373Z,962.74
2018-03-08T07:48:07.402Z,962.72
2018-03-08T07:49:07.442Z,962.67
2018-03-08T07:50:07.486Z,962.66
2018-03-08T07:51:07.535Z,962.69
2018-03-08T07:52:07.590Z,962.73
2018-03-08T07:53:07.616Z,962.76
2018-03-08T07:54:07.684Z,962.70
2018-03-08T07:55:07.703Z,962.74
2018-03-08T07:56:07.752Z,962.70
2018-03-08T07:57:07.800Z,962.71
2018-03-08T07:58:07.838Z,962.73
2018-03-08T07:59:07.899Z,962.69
2018-03-08T08:00:07.927Z,962.64
2018-03-08T08:01:07.974Z,962.60
2018-03-08T08:02:08.016Z,962.67
2018-03-08T08:03:08.064Z,962.69
2018-03-08T08:04:08.122Z,962.72
2018-03-08T08:05:08.173Z,962.69
2018-03-08T08:06:08.195Z,962.77
2018-03-08T08:07:08.254Z,962.72
2018-03-08T08:08:08.286Z,962.69
2018-03-08T08:09:08.331Z,962.69
2018-03-08T08:10:08.402Z,962.70
2018-03-08T08:11:08.425Z,962.70
2018-03-08T08:12:08.473Z,962.68
2018-03-08T08:13:08.517Z,962.71
2018-03-08T08:14:08.563Z,962.72
2018-03-08T08:15:08.632Z,962.70
2018-03-08T08:16:08.657Z,962.68
2018-03-08T08:17:08.703Z,962.73
2018-03-08T08:18:08.751Z,962.72
2018-03-08T08:19:08.796Z,962.72
2018-03-08T08:20:08.861Z,962.72
2018-03-08T08:21:08.937Z,962.74
2018-03-08T08:22:08.937Z,962.74
2018-03-08T08:23:08.985Z,962.79
2018-03-08T08:24:09.032Z,962.76
2018-03-08T08:25:09.081Z,962.76
2018-03-08T08:26:09.144Z,962.77
2018-03-08T08:27:09.175Z,962.70
2018-03-08T08:28:09.223Z,962.72
2018-03-08T08:29:09.270Z,962.71
2018-03-08T08:30:09.335Z,962.71
2018-03-08T08:31:09.368Z,962.74
2018-03-08T08:32:09.413Z,962.78
2018-03-08T08:33:09.469Z,962.70
2018-03-08T08:34:09.511Z,962.68
2018-03-08T08:35:09.588Z,962.66
2018-03-08T08:36:09.606Z,962.61
2018-03-08T08:37:09.650Z,962.65
2018-03-08T08:38:09.702Z,962.63
2018-03-08T08:39:09.748Z,962.67
2018-03-08T08:40:09.815Z,962.69
2018-03-08T08:41:09.846Z,962.67
2018-03-08T08:42:09.894Z,962.67
2018-03-08T08:43:09.940Z,962.69
2018-03-08T08:44:09.995Z,962.68
2018-03-08T08:45:10.058Z,962.71
2018-03-08T08:46:10.095Z,962.67
2018-03-08T08:47:10.152Z,962.69
2018-03-08T08:48:10.187Z,962.66
2018-03-08T08:49:10.234Z,962.65
2018-03-08T08:50:10.285Z,962.67
2018-03-08T08:51:10.350Z,962.66
2018-03-08T08:52:10.386Z,962.66
2018-03-08T08:53:10.443Z,962.65
2018-03-08T08:54:10.474Z,962.68
2018-03-08T08:55:10.525Z,962.60
2018-03-08T08:56:10.592Z,962.65
2018-03-08T08:57:10.624Z,962.62
2018-03-08T08:58:10.674Z,962.61
2018-03-08T08:59:10.722Z,962.59
2018-03-08T09:00:10.776Z,962.61
2018-03-08T09:01:10.834Z,962.62
2018-03-08T09:02:10.872Z,962.61
2018-03-08T09:03:10.926Z,962.61
2018-03-08T09:04:10.972Z,962.61
2018-03-08T09:05:11.016Z,962.62
2018-03-08T09:06:11.089Z,962.61
2018-03-08T09:07:11.120Z,962.66
2018-03-08T09:08:11.169Z,962.60
2018-03-08T09:09:11.217Z,962.65
2018-03-08T09:10:11.269Z,962.63
2018-03-08T09:11:11.341Z,962.65
2018-03-08T09:12:11.370Z,962.68
2018-03-08T09:13:11.416Z,962.66
2018-03-08T09:14:11.484Z,962.64
2018-03-08T09:15:11.538Z,962.65
2018-03-08T09:16:11.567Z,962.63
2018-03-08T09:17:11.634Z,962.62
2018-03-08T09:18:11.667Z,962.62
2018-03-08T09:19:11.740Z,962.62
2018-03-08T09:20:11.770Z,962.60
2018-03-08T09:21:11.820Z,962.60
2018-03-08T09:22:11.903Z,962.64
2018-03-08T09:23:11.919Z,962.64
2018-03-08T09:24:11.971Z,962.61
2018-03-08T09:25:12.019Z,962.65
2018-03-08T09:26:12.069Z,962.59
2018-03-08T09:27:12.137Z,962.60
2018-03-08T09:28:12.179Z,962.67
2018-03-08T09:29:12.218Z,962.64
2018-03-08T09:30:12.271Z,962.67
2018-03-08T09:31:12.325Z,962.66
2018-03-08T09:32:12.388Z,962.65
2018-03-08T09:33:12.419Z,962.66
2018-03-08T09:34:12.474Z,962.70
2018-03-08T09:35:12.522Z,962.71
2018-03-08T09:36:12.601Z,962.68
2018-03-08T09:37:12.625Z,962.66
2018-03-08T09:38:12.675Z,962.68
2018-03-08T09:39:12.721Z,962.71
2018-03-08T09:40:12.776Z,962.72
2018-03-08T09:41:12.839Z,962.65
2018-03-08T09:42:12.873Z,962.69
2018-03-08T09:43:12.926Z,962.70
2018-03-08T09:44:12.977Z,962.64
2018-03-08T09:45:13.041Z,962.69
2018-03-08T09:46:13.073Z,962.66
2018-03-08T09:47:13.128Z,962.67
2018-03-08T09:48:13.183Z,962.68
2018-03-08T09:49:13.290Z,962.69
2018-03-08T09:50:13.293Z,962.67
2018-03-08T09:51:13.332Z,962.74
2018-03-08T09:52:13.383Z,962.72
2018-03-08T09:53:13.441Z,962.74
2018-03-08T09:54:13.503Z,962.79
2018-03-08T09:55:13.554Z,962.79
2018-03-08T09:56:13.595Z,962.80
2018-03-08T09:57:13.643Z,962.77
2018-03-08T09:58:13.692Z,962.78
2018-03-08T09:59:13.744Z,962.76
2018-03-08T10:00:13.819Z,962.77
2018-03-08T10:01:13.852Z,962.75
2018-03-08T10:02:13.900Z,962.77
2018-03-08T10:03:13.952Z,962.76
2018-03-08T10:04:14.002Z,962.72
2018-03-08T10:05:14.076Z,962.72
2018-03-08T10:06:14.105Z,962.69
2018-03-08T10:07:14.162Z,962.69
2018-03-08T10:08:14.207Z,962.65
2018-03-08T10:09:14.259Z,962.66
2018-03-08T10:10:14.326Z,962.65
2018-03-08T10:11:14.382Z,962.64
2018-03-08T10:12:14.414Z,962.64
2018-03-08T10:13:14.479Z,962.60
2018-03-08T10:14:14.523Z,962.55
2018-03-08T10:15:14.568Z,962.64
2018-03-08T10:16:14.647Z,962.60
2018-03-08T10:17:14.673Z,962.60
2018-03-08T10:18:14.729Z,962.61
2018-03-08T10:19:14.779Z,962.59
2018-03-08T10:20:14.826Z,962.60
2018-03-08T10:21:14.897Z,962.59
2018-03-08T10:22:14.948Z,962.57
2018-03-08T10:23:14.983Z,962.57
2018-03-08T10:24:15.038Z,962.57
2018-03-08T10:25:15.093Z,962.57
2018-03-08T10:26:15.154Z,962.58
2018-03-08T10:27:15.207Z,962.57
2018-03-08T10:28:15.243Z,962.54
2018-03-08T10:29:15.297Z,962.53
2018-03-08T10:30:15.348Z,962.55
2018-03-08T10:31:15.396Z,962.54
2018-03-08T10:32:15.464Z,962.50
2018-03-08T10:33:15.544Z,962.53
2018-03-08T10:34:15.552Z,962.56
2018-03-08T10:35:15.603Z,962.52
2018-03-08T10:36:15.663Z,962.50
2018-03-08T10:37:15.725Z,962.47
2018-03-08T10:38:15.757Z,962.49
2018-03-08T10:40:15.858Z,962.37
2018-03-08T10:41:15.913Z,962.40
2018-03-08T10:42:15.960Z,962.38
2018-03-08T10:43:16.020Z,962.38
2018-03-08T10:44:16.076Z,962.40
2018-03-08T10:45:16.111Z,962.37
2018-03-08T10:46:16.163Z,962.36
2018-03-08T10:47:16.214Z,962.39
2018-03-08T10:48:16.265Z,962.41
2018-03-08T10:49:16.331Z,962.35
2018-03-08T10:50:16.369Z,962.35
2018-03-08T10:51:16.418Z,962.31
2018-03-08T10:52:16.486Z,962.34
2018-03-08T10:53:16.520Z,962.26
2018-03-08T10:54:16.592Z,962.27
2018-03-08T10:55:16.623Z,962.25
2018-03-08T10:56:16.675Z,962.24
2018-03-08T10:57:16.726Z,962.18
2018-03-08T10:58:16.793Z,962.20
2018-03-08T10:59:16.829Z,962.18
2018-03-08T11:00:16.897Z,962.15
2018-03-08T11:01:16.931Z,962.16
2018-03-08T11:02:16.990Z,962.15
2018-03-08T11:03:17.035Z,962.18
2018-03-08T11:04:17.089Z,962.11
2018-03-08T11:05:17.156Z,962.12
2018-03-08T11:06:17.196Z,962.11
2018-03-08T11:07:17.243Z,962.09
2018-03-08T11:08:17.313Z,962.09
2018-03-08T11:09:17.346Z,962.10
2018-03-08T11:10:17.392Z,962.08
2018-03-08T11:11:17.464Z,962.12
2018-03-08T11:12:17.500Z,962.06
2018-03-08T11:13:17.554Z,962.06
2018-03-08T11:14:17.604Z,962.08
2018-03-08T11:15:17.662Z,962.05
2018-03-08T11:16:17.726Z,962.04
2018-03-08T11:17:17.761Z,962.12
2018-03-08T11:18:17.821Z,962.07
2018-03-08T11:19:17.867Z,962.09
2018-03-08T11:20:17.923Z,962.02
2018-03-08T11:21:17.990Z,962.01
2018-03-08T11:22:18.027Z,962.00
2018-03-08T11:23:18.080Z,961.97
2018-03-08T11:24:18.135Z,961.99
2018-03-08T11:25:18.185Z,962.01
2018-03-08T11:26:18.419Z,961.98
2018-03-08T11:27:18.322Z,961.97
2018-03-08T11:28:18.346Z,961.91
2018-03-08T11:29:18.397Z,961.87
2018-03-08T11:30:18.450Z,961.91
2018-03-08T11:31:18.512Z,961.92
2018-03-08T11:32:18.574Z,961.88
2018-03-08T11:33:18.614Z,961.89
2018-03-08T11:34:18.661Z,961.83
2018-03-08T11:35:18.719Z,961.88
2018-03-08T11:36:18.770Z,961.86
2018-03-08T11:37:18.834Z,961.78
2018-03-08T11:38:18.872Z,961.75
2018-03-08T11:39:18.923Z,961.78
2018-03-08T11:40:18.972Z,961.74
2018-03-08T11:41:19.024Z,961.74
2018-03-08T11:42:19.095Z,961.70
2018-03-08T11:43:19.133Z,961.71
2018-03-08T11:44:19.190Z,961.73
2018-03-08T11:45:19.232Z,961.68
2018-03-08T11:46:19.284Z,961.71
2018-03-08T11:47:19.354Z,961.72
2018-03-08T11:48:19.410Z,961.68
2018-03-08T11:49:20.115Z,961.67
2018-03-08T11:50:19.492Z,961.66
2018-03-08T11:51:19.545Z,961.72
2018-03-08T11:52:19.601Z,961.67
2018-03-08T11:53:19.669Z,961.67
2018-03-08T11:54:19.701Z,961.65
2018-03-08T11:55:19.755Z,961.57
2018-03-08T11:56:19.810Z,961.51
2018-03-08T11:57:19.858Z,961.49
2018-03-08T11:58:19.930Z,961.55
2018-03-08T11:59:19.983Z,961.53
2018-03-08T12:00:20.019Z,961.55
2018-03-08T12:01:20.068Z,961.55
2018-03-08T12:02:20.128Z,961.52
2018-03-08T12:03:20.174Z,961.53
2018-03-08T12:04:20.242Z,961.55
2018-03-08T12:05:20.278Z,961.45
2018-03-08T12:06:20.332Z,961.46
2018-03-08T12:07:20.386Z,961.48
2018-03-08T12:08:20.436Z,961.52
2018-03-08T12:09:20.509Z,961.50
2018-03-08T12:10:20.544Z,961.50
2018-03-08T12:11:20.599Z,961.46
2018-03-08T12:12:20.650Z,961.49
2018-03-08T12:13:20.700Z,961.46
2018-03-08T12:14:20.785Z,961.44
2018-03-08T12:15:20.806Z,961.47
2018-03-08T12:16:20.860Z,961.42
2018-03-08T12:17:20.910Z,961.46
2018-03-08T12:18:20.963Z,961.45
2018-03-08T12:19:21.033Z,961.49
2018-03-08T12:20:21.084Z,961.47
2018-03-08T12:21:21.124Z,961.44
2018-03-08T12:22:21.177Z,961.44
2018-03-08T12:23:21.226Z,961.43
2018-03-08T12:24:21.286Z,961.35
2018-03-08T12:25:21.354Z,961.44
2018-03-08T12:26:21.387Z,961.45
2018-03-08T12:27:21.443Z,961.38
2018-03-08T12:28:21.489Z,961.38
2018-03-08T12:29:21.549Z,961.41
2018-03-08T12:30:21.617Z,961.39
2018-03-08T12:31:21.648Z,961.40